Deadhorse Information

FAA: SCC - ICAO: PASC

Deadhorse (Airport) Location

State Alaska
County North Slope
City Deadhorse
Deadhorse (Airport) is 0 miles southeast of Deadhorse, AK.
Latitude 70-11-41.1148N
Longitude 148-27-54.5935W
Elevation 67ft

Deadhorse METARs

METAR PASC 262253Z 24016KT 3SM BLSN BR SCT005 M29/M32 A3049 RMK AO2 SLP330 T12891322 PNO $
Altimeter 30.49"
Temperature -28.9°C (-20.0°F)
Wind 240° at 16KT
Clouds scattered at 500ft
Visibility 3.0mi
Time observed: 2022-01-26T22:53:00Z

Deadhorse (Airport) Details

Status Operational
Activation April 1970
Ownership Public
Usage Public
Chart POINT BARROW
ATC on-site No
Beacon schedule sunset-sunrise
Beacon color clear green

Deadhorse (Airport) Contacts

Owner ALASKA DOT&PF NORTHERN REGION
Owner address 2301 PEGER RD, FAIRBANKS, AK 99709
Owner phone 907-451-2200
Manager JOHN HOFFMAN
Manager address P O BOX 7, GLENALLEN, AK 99588
Manager phone 907-822-3222

Deadhorse Radio Frequencies

Deadhorse (Airport) Radio Frequencies

UNICOM 123
Common traffic advisory frequency (CTAF) 123.6